sensor_id;sensor_type;location;lat;lon;timestamp;P1;durP1;ratioP1;P2;durP2;ratioP2
20984;SDS011;10651;47.552;7.606;2022-12-05T06:22:31;38.80;;;18.92;;
20984;SDS011;10651;47.552;7.606;2022-12-05T06:24:57;34.90;;;18.80;;
20984;SDS011;10651;47.552;7.606;2022-12-05T06:27:31;34.25;;;20.90;;
20984;SDS011;10651;47.552;7.606;2022-12-05T06:29:57;30.45;;;18.20;;
20984;SDS011;10651;47.552;7.606;2022-12-05T06:32:23;33.08;;;18.60;;
20984;SDS011;10651;47.552;7.606;2022-12-05T06:34:49;28.08;;;16.48;;
20984;SDS011;10651;47.552;7.606;2022-12-05T06:37:17;35.05;;;18.70;;
20984;SDS011;10651;47.552;7.606;2022-12-05T06:39:43;25.67;;;16.67;;
20984;SDS011;10651;47.552;7.606;2022-12-05T06:42:19;27.98;;;16.88;;
20984;SDS011;10651;47.552;7.606;2022-12-05T06:44:47;31.90;;;18.98;;
20984;SDS011;10651;47.552;7.606;2022-12-05T06:47:13;29.30;;;18.02;;
20984;SDS011;10651;47.552;7.606;2022-12-05T06:49:39;34.47;;;19.90;;
20984;SDS011;10651;47.552;7.606;2022-12-05T06:52:04;29.75;;;16.95;;
20984;SDS011;10651;47.552;7.606;2022-12-05T06:54:30;34.60;;;18.42;;
20984;SDS011;10651;47.552;7.606;2022-12-05T06:56:56;28.95;;;17.38;;
20984;SDS011;10651;47.552;7.606;2022-12-05T06:59:21;31.67;;;17.37;;
20984;SDS011;10651;47.552;7.606;2022-12-05T07:01:47;33.10;;;18.00;;
20984;SDS011;10651;47.552;7.606;2022-12-05T07:06:45;31.92;;;17.55;;
20984;SDS011;10651;47.552;7.606;2022-12-05T07:09:13;26.17;;;16.67;;
20984;SDS011;10651;47.552;7.606;2022-12-05T07:11:39;28.50;;;16.80;;
20984;SDS011;10651;47.552;7.606;2022-12-05T07:14:08;26.83;;;16.30;;
20984;SDS011;10651;47.552;7.606;2022-12-05T07:16:37;25.20;;;16.25;;
20984;SDS011;10651;47.552;7.606;2022-12-05T07:19:03;26.67;;;16.58;;
20984;SDS011;10651;47.552;7.606;2022-12-05T07:21:29;23.33;;;15.60;;
20984;SDS011;10651;47.552;7.606;2022-12-05T07:23:55;24.05;;;14.75;;
20984;SDS011;10651;47.552;7.606;2022-12-05T07:26:22;24.00;;;15.38;;
20984;SDS011;10651;47.552;7.606;2022-12-05T07:28:49;27.45;;;15.32;;
20984;SDS011;10651;47.552;7.606;2022-12-05T07:31:17;25.37;;;16.20;;
20984;SDS011;10651;47.552;7.606;2022-12-05T07:33:53;26.17;;;16.02;;
20984;SDS011;10651;47.552;7.606;2022-12-05T07:36:20;27.70;;;15.43;;
20984;SDS011;10651;47.552;7.606;2022-12-05T07:38:47;25.90;;;17.77;;
20984;SDS011;10651;47.552;7.606;2022-12-05T07:41:19;24.67;;;17.20;;
20984;SDS011;10651;47.552;7.606;2022-12-05T07:43:50;24.38;;;16.15;;
20984;SDS011;10651;47.552;7.606;2022-12-05T07:46:22;27.10;;;16.48;;
20984;SDS011;10651;47.552;7.606;2022-12-05T07:48:49;28.65;;;16.42;;
20984;SDS011;10651;47.552;7.606;2022-12-05T07:51:15;28.65;;;17.30;;
20984;SDS011;10651;47.552;7.606;2022-12-05T07:53:42;27.75;;;17.30;;
20984;SDS011;10651;47.552;7.606;2022-12-05T07:56:09;34.83;;;18.52;;
20984;SDS011;10651;47.552;7.606;2022-12-05T07:58:41;28.77;;;17.80;;
20984;SDS011;10651;47.552;7.606;2022-12-05T08:01:12;29.60;;;16.40;;
20984;SDS011;10651;47.552;7.606;2022-12-05T08:03:46;33.40;;;17.92;;
20984;SDS011;10651;47.552;7.606;2022-12-05T08:06:13;31.83;;;18.47;;
20984;SDS011;10651;47.552;7.606;2022-12-05T08:08:41;36.00;;;19.58;;
20984;SDS011;10651;47.552;7.606;2022-12-05T08:11:12;32.17;;;18.58;;
20984;SDS011;10651;47.552;7.606;2022-12-05T08:13:39;32.95;;;19.23;;
20984;SDS011;10651;47.552;7.606;2022-12-05T08:16:06;30.25;;;18.48;;
20984;SDS011;10651;47.552;7.606;2022-12-05T08:18:35;33.55;;;19.95;;
20984;SDS011;10651;47.552;7.606;2022-12-05T08:21:01;32.35;;;19.40;;
20984;SDS011;10651;47.552;7.606;2022-12-05T08:23:29;31.48;;;18.98;;
20984;SDS011;10651;47.552;7.606;2022-12-05T08:25:55;43.15;;;22.30;;
20984;SDS011;10651;47.552;7.606;2022-12-05T08:28:25;41.95;;;21.42;;
20984;SDS011;10651;47.552;7.606;2022-12-05T08:30:54;44.30;;;21.60;;
20984;SDS011;10651;47.552;7.606;2022-12-05T08:33:20;36.58;;;20.30;;
20984;SDS011;10651;47.552;7.606;2022-12-05T08:35:45;40.40;;;20.88;;
20984;SDS011;10651;47.552;7.606;2022-12-05T08:38:11;31.48;;;20.30;;
20984;SDS011;10651;47.552;7.606;2022-12-05T08:40:37;31.77;;;20.50;;
20984;SDS011;10651;47.552;7.606;2022-12-05T08:43:02;32.35;;;20.05;;
20984;SDS011;10651;47.552;7.606;2022-12-05T08:45:28;40.40;;;19.38;;
20984;SDS011;10651;47.552;7.606;2022-12-05T08:47:53;34.60;;;20.13;;
20984;SDS011;10651;47.552;7.606;2022-12-05T08:50:19;38.92;;;21.02;;
20984;SDS011;10651;47.552;7.606;2022-12-05T08:52:45;33.85;;;19.42;;
20984;SDS011;10651;47.552;7.606;2022-12-05T08:55:11;31.23;;;19.17;;
20984;SDS011;10651;47.552;7.606;2022-12-05T08:57:36;36.85;;;19.77;;
20984;SDS011;10651;47.552;7.606;2022-12-05T09:32:17;41.15;;;21.80;;
20984;SDS011;10651;47.552;7.606;2022-12-05T09:35:02;37.75;;;22.00;;
20984;SDS011;10651;47.552;7.606;2022-12-05T09:58:48;35.58;;;20.88;;
20984;SDS011;10651;47.552;7.606;2022-12-05T10:07:11;28.85;;;19.25;;
20984;SDS011;10651;47.552;7.606;2022-12-05T10:09:59;34.53;;;20.55;;
20984;SDS011;10651;47.552;7.606;2022-12-05T10:18:08;28.98;;;19.15;;
20984;SDS011;10651;47.552;7.606;2022-12-05T10:20:55;31.98;;;19.83;;
20984;SDS011;10651;47.552;7.606;2022-12-05T10:23:31;29.02;;;19.35;;
20984;SDS011;10651;47.552;7.606;2022-12-05T10:26:01;32.05;;;19.25;;
20984;SDS011;10651;47.552;7.606;2022-12-05T10:28:40;32.22;;;20.20;;
20984;SDS011;10651;47.552;7.606;2022-12-05T10:31:12;34.78;;;20.75;;
20984;SDS011;10651;47.552;7.606;2022-12-05T10:33:43;39.20;;;19.55;;
20984;SDS011;10651;47.552;7.606;2022-12-05T10:39:17;29.77;;;19.23;;
20984;SDS011;10651;47.552;7.606;2022-12-05T10:41:43;31.05;;;18.48;;
20984;SDS011;10651;47.552;7.606;2022-12-05T10:44:09;33.50;;;19.15;;
20984;SDS011;10651;47.552;7.606;2022-12-05T10:46:38;29.83;;;19.02;;
20984;SDS011;10651;47.552;7.606;2022-12-05T10:49:08;30.50;;;18.95;;
20984;SDS011;10651;47.552;7.606;2022-12-05T10:51:38;27.30;;;17.58;;
20984;SDS011;10651;47.552;7.606;2022-12-05T10:54:12;31.83;;;17.10;;
20984;SDS011;10651;47.552;7.606;2022-12-05T10:56:48;25.13;;;16.23;;
20984;SDS011;10651;47.552;7.606;2022-12-05T10:59:19;25.55;;;17.20;;
20984;SDS011;10651;47.552;7.606;2022-12-05T11:01:48;29.73;;;16.80;;
20984;SDS011;10651;47.552;7.606;2022-12-05T11:04:24;27.42;;;16.95;;
20984;SDS011;10651;47.552;7.606;2022-12-05T11:06:57;29.95;;;16.50;;
20984;SDS011;10651;47.552;7.606;2022-12-05T11:09:32;26.90;;;16.65;;
20984;SDS011;10651;47.552;7.606;2022-12-05T11:15:20;27.35;;;16.55;;
20984;SDS011;10651;47.552;7.606;2022-12-05T11:18:16;26.83;;;16.73;;
20984;SDS011;10651;47.552;7.606;2022-12-05T11:21:23;22.30;;;14.52;;
20984;SDS011;10651;47.552;7.606;2022-12-05T11:24:24;26.77;;;14.50;;
20984;SDS011;10651;47.552;7.606;2022-12-05T11:26:51;23.23;;;13.60;;
20984;SDS011;10651;47.552;7.606;2022-12-05T11:29:27;23.33;;;15.35;;
20984;SDS011;10651;47.552;7.606;2022-12-05T11:31:55;23.10;;;13.85;;
20984;SDS011;10651;47.552;7.606;2022-12-05T11:34:45;23.25;;;14.00;;
20984;SDS011;10651;47.552;7.606;2022-12-05T11:37:37;22.20;;;14.43;;
20984;SDS011;10651;47.552;7.606;2022-12-05T11:40:23;22.67;;;14.93;;
20984;SDS011;10651;47.552;7.606;2022-12-05T11:43:17;21.55;;;13.88;;
20984;SDS011;10651;47.552;7.606;2022-12-05T11:53:55;19.58;;;12.60;;
20984;SDS011;10651;47.552;7.606;2022-12-05T11:56:36;17.33;;;10.95;;
20984;SDS011;10651;47.552;7.606;2022-12-05T11:59:20;16.20;;;10.88;;
20984;SDS011;10651;47.552;7.606;2022-12-05T12:01:57;13.80;;;9.57;;
20984;SDS011;10651;47.552;7.606;2022-12-05T12:04:33;15.02;;;9.23;;
20984;SDS011;10651;47.552;7.606;2022-12-05T12:12:22;12.98;;;9.93;;
20984;SDS011;10651;47.552;7.606;2022-12-05T12:23:18;17.23;;;11.02;;
20984;SDS011;10651;47.552;7.606;2022-12-05T12:31:56;13.65;;;9.95;;
20984;SDS011;10651;47.552;7.606;2022-12-05T12:37:26;13.07;;;9.35;;
20984;SDS011;10651;47.552;7.606;2022-12-05T12:40:27;14.57;;;9.27;;
20984;SDS011;10651;47.552;7.606;2022-12-05T12:51:22;13.57;;;9.43;;
20984;SDS011;10651;47.552;7.606;2022-12-05T13:07:20;16.60;;;9.68;;
20984;SDS011;10651;47.552;7.606;2022-12-05T13:10:02;13.07;;;8.90;;
20984;SDS011;10651;47.552;7.606;2022-12-05T13:12:43;11.65;;;7.95;;
20984;SDS011;10651;47.552;7.606;2022-12-05T13:15:14;11.52;;;8.05;;
20984;SDS011;10651;47.552;7.606;2022-12-05T13:17:43;12.70;;;8.10;;
20984;SDS011;10651;47.552;7.606;2022-12-05T13:20:18;8.32;;;6.53;;
20984;SDS011;10651;47.552;7.606;2022-12-05T13:22:48;7.95;;;5.68;;
20984;SDS011;10651;47.552;7.606;2022-12-05T13:25:16;7.45;;;5.50;;
20984;SDS011;10651;47.552;7.606;2022-12-05T13:27:52;7.03;;;5.30;;
20984;SDS011;10651;47.552;7.606;2022-12-05T13:30:21;5.95;;;4.95;;
20984;SDS011;10651;47.552;7.606;2022-12-05T13:32:49;6.72;;;4.88;;
20984;SDS011;10651;47.552;7.606;2022-12-05T13:35:31;4.93;;;4.43;;
20984;SDS011;10651;47.552;7.606;2022-12-05T13:38:30;6.47;;;4.55;;
20984;SDS011;10651;47.552;7.606;2022-12-05T13:41:18;5.78;;;4.65;;
20984;SDS011;10651;47.552;7.606;2022-12-05T13:44:02;6.68;;;4.57;;
20984;SDS011;10651;47.552;7.606;2022-12-05T13:46:37;5.43;;;4.70;;
20984;SDS011;10651;47.552;7.606;2022-12-05T13:49:15;5.28;;;4.78;;
20984;SDS011;10651;47.552;7.606;2022-12-05T13:51:49;14.85;;;6.13;;
20984;SDS011;10651;47.552;7.606;2022-12-05T13:54:16;5.63;;;4.40;;
20984;SDS011;10651;47.552;7.606;2022-12-05T13:56:51;5.70;;;4.68;;
20984;SDS011;10651;47.552;7.606;2022-12-05T14:03:12;8.85;;;4.82;;
20984;SDS011;10651;47.552;7.606;2022-12-05T14:07:43;5.93;;;4.70;;
20984;SDS011;10651;47.552;7.606;2022-12-05T14:10:23;7.07;;;5.13;;
20984;SDS011;10651;47.552;7.606;2022-12-05T14:15:39;8.25;;;5.30;;
20984;SDS011;10651;47.552;7.606;2022-12-05T14:21:26;7.07;;;5.65;;
20984;SDS011;10651;47.552;7.606;2022-12-05T14:34:57;6.50;;;4.70;;
20984;SDS011;10651;47.552;7.606;2022-12-05T14:40:32;6.15;;;5.35;;
20984;SDS011;10651;47.552;7.606;2022-12-05T14:45:32;9.95;;;5.72;;
20984;SDS011;10651;47.552;7.606;2022-12-05T14:50:42;20.08;;;6.45;;
20984;SDS011;10651;47.552;7.606;2022-12-05T14:55:40;12.18;;;6.18;;
20984;SDS011;10651;47.552;7.606;2022-12-05T15:01:05;9.95;;;6.38;;
20984;SDS011;10651;47.552;7.606;2022-12-05T15:04:01;11.85;;;6.80;;
20984;SDS011;10651;47.552;7.606;2022-12-05T15:12:05;8.65;;;7.15;;
20984;SDS011;10651;47.552;7.606;2022-12-05T15:14:45;8.70;;;7.30;;
20984;SDS011;10651;47.552;7.606;2022-12-05T15:17:24;8.75;;;6.90;;
20984;SDS011;10651;47.552;7.606;2022-12-05T15:19:55;9.60;;;6.55;;
20984;SDS011;10651;47.552;7.606;2022-12-05T15:22:28;10.20;;;7.90;;
20984;SDS011;10651;47.552;7.606;2022-12-05T15:24:57;7.28;;;5.80;;
20984;SDS011;10651;47.552;7.606;2022-12-05T15:27:38;11.40;;;5.78;;
20984;SDS011;10651;47.552;7.606;2022-12-05T15:30:04;6.45;;;5.40;;
20984;SDS011;10651;47.552;7.606;2022-12-05T15:32:38;15.00;;;6.82;;
20984;SDS011;10651;47.552;7.606;2022-12-05T15:35:05;9.02;;;5.60;;
20984;SDS011;10651;47.552;7.606;2022-12-05T15:40:23;7.68;;;5.82;;
20984;SDS011;10651;47.552;7.606;2022-12-05T15:43:00;7.70;;;5.88;;
20984;SDS011;10651;47.552;7.606;2022-12-05T15:45:42;8.73;;;6.45;;
20984;SDS011;10651;47.552;7.606;2022-12-05T15:50:36;7.72;;;6.25;;
20984;SDS011;10651;47.552;7.606;2022-12-05T15:55:37;8.50;;;6.32;;
20984;SDS011;10651;47.552;7.606;2022-12-05T16:00:36;7.05;;;6.05;;
20984;SDS011;10651;47.552;7.606;2022-12-05T16:05:56;9.13;;;6.22;;
20984;SDS011;10651;47.552;7.606;2022-12-05T16:08:26;7.45;;;5.93;;
20984;SDS011;10651;47.552;7.606;2022-12-05T16:11:08;9.45;;;6.25;;
20984;SDS011;10651;47.552;7.606;2022-12-05T16:13:35;11.93;;;6.68;;
20984;SDS011;10651;47.552;7.606;2022-12-05T16:16:18;10.32;;;6.78;;
20984;SDS011;10651;47.552;7.606;2022-12-05T16:18:56;8.23;;;6.45;;
20984;SDS011;10651;47.552;7.606;2022-12-05T16:21:34;8.35;;;6.88;;
20984;SDS011;10651;47.552;7.606;2022-12-05T16:24:06;13.65;;;8.32;;
20984;SDS011;10651;47.552;7.606;2022-12-05T16:26:51;8.50;;;7.13;;
20984;SDS011;10651;47.552;7.606;2022-12-05T16:29:27;13.90;;;8.38;;
20984;SDS011;10651;47.552;7.606;2022-12-05T16:31:55;11.80;;;8.00;;
20984;SDS011;10651;47.552;7.606;2022-12-05T16:34:22;11.60;;;7.82;;
20984;SDS011;10651;47.552;7.606;2022-12-05T16:36:53;9.32;;;6.90;;
20984;SDS011;10651;47.552;7.606;2022-12-05T16:39:21;12.77;;;7.53;;
20984;SDS011;10651;47.552;7.606;2022-12-05T16:41:48;12.65;;;7.93;;
20984;SDS011;10651;47.552;7.606;2022-12-05T16:47:24;11.05;;;8.10;;
20984;SDS011;10651;47.552;7.606;2022-12-05T16:49:51;8.85;;;7.10;;
20984;SDS011;10651;47.552;7.606;2022-12-05T16:52:17;13.02;;;7.82;;
20984;SDS011;10651;47.552;7.606;2022-12-05T16:54:46;10.02;;;7.28;;
20984;SDS011;10651;47.552;7.606;2022-12-05T16:57:16;10.50;;;7.88;;
20984;SDS011;10651;47.552;7.606;2022-12-05T16:59:42;11.50;;;8.40;;
20984;SDS011;10651;47.552;7.606;2022-12-05T17:02:17;12.27;;;7.97;;
20984;SDS011;10651;47.552;7.606;2022-12-05T17:04:43;9.70;;;7.90;;
20984;SDS011;10651;47.552;7.606;2022-12-05T17:07:10;11.75;;;8.07;;
20984;SDS011;10651;47.552;7.606;2022-12-05T17:09:36;11.02;;;8.40;;
20984;SDS011;10651;47.552;7.606;2022-12-05T17:12:20;10.85;;;8.93;;
20984;SDS011;10651;47.552;7.606;2022-12-05T17:14:48;16.20;;;9.30;;
20984;SDS011;10651;47.552;7.606;2022-12-05T17:17:13;12.82;;;9.55;;
20984;SDS011;10651;47.552;7.606;2022-12-05T17:19:40;11.25;;;8.45;;
20984;SDS011;10651;47.552;7.606;2022-12-05T17:22:06;14.35;;;10.35;;
20984;SDS011;10651;47.552;7.606;2022-12-05T17:24:31;11.60;;;9.55;;
20984;SDS011;10651;47.552;7.606;2022-12-05T17:26:57;13.40;;;9.75;;
20984;SDS011;10651;47.552;7.606;2022-12-05T17:29:23;15.95;;;9.95;;
20984;SDS011;10651;47.552;7.606;2022-12-05T17:31:49;14.27;;;9.60;;
20984;SDS011;10651;47.552;7.606;2022-12-05T17:34:15;13.80;;;9.38;;
20984;SDS011;10651;47.552;7.606;2022-12-05T17:36:42;14.05;;;9.88;;
20984;SDS011;10651;47.552;7.606;2022-12-05T17:39:08;15.68;;;10.10;;
20984;SDS011;10651;47.552;7.606;2022-12-05T17:41:34;14.32;;;10.77;;
20984;SDS011;10651;47.552;7.606;2022-12-05T17:44:01;14.05;;;10.93;;
20984;SDS011;10651;47.552;7.606;2022-12-05T17:46:27;13.75;;;9.93;;
20984;SDS011;10651;47.552;7.606;2022-12-05T17:48:52;14.25;;;9.88;;
20984;SDS011;10651;47.552;7.606;2022-12-05T17:51:18;17.10;;;11.50;;
20984;SDS011;10651;47.552;7.606;2022-12-05T17:53:45;12.40;;;9.90;;
20984;SDS011;10651;47.552;7.606;2022-12-05T17:56:14;17.27;;;9.88;;
20984;SDS011;10651;47.552;7.606;2022-12-05T17:58:43;14.13;;;10.45;;
20984;SDS011;10651;47.552;7.606;2022-12-05T18:01:11;13.13;;;10.20;;
20984;SDS011;10651;47.552;7.606;2022-12-05T18:03:55;20.65;;;10.48;;
20984;SDS011;10651;47.552;7.606;2022-12-05T18:06:21;14.45;;;10.00;;
20984;SDS011;10651;47.552;7.606;2022-12-05T18:08:50;14.48;;;10.13;;
20984;SDS011;10651;47.552;7.606;2022-12-05T18:11:19;16.23;;;10.68;;
20984;SDS011;10651;47.552;7.606;2022-12-05T18:13:45;11.35;;;10.13;;
20984;SDS011;10651;47.552;7.606;2022-12-05T18:16:17;14.82;;;11.02;;
20984;SDS011;10651;47.552;7.606;2022-12-05T18:18:42;18.63;;;11.20;;
20984;SDS011;10651;47.552;7.606;2022-12-05T18:21:09;15.27;;;10.98;;
20984;SDS011;10651;47.552;7.606;2022-12-05T18:23:36;17.10;;;12.05;;
20984;SDS011;10651;47.552;7.606;2022-12-05T18:26:12;14.85;;;11.68;;
20984;SDS011;10651;47.552;7.606;2022-12-05T18:28:38;13.65;;;10.85;;
20984;SDS011;10651;47.552;7.606;2022-12-05T18:31:05;16.88;;;10.90;;
20984;SDS011;10651;47.552;7.606;2022-12-05T18:33:34;14.50;;;11.18;;
20984;SDS011;10651;47.552;7.606;2022-12-05T18:36:04;18.27;;;12.10;;
20984;SDS011;10651;47.552;7.606;2022-12-05T18:38:35;16.77;;;11.52;;
20984;SDS011;10651;47.552;7.606;2022-12-05T18:41:03;16.33;;;10.93;;
20984;SDS011;10651;47.552;7.606;2022-12-05T18:43:30;18.10;;;11.57;;
20984;SDS011;10651;47.552;7.606;2022-12-05T18:45:57;16.27;;;12.40;;
20984;SDS011;10651;47.552;7.606;2022-12-05T18:48:24;15.27;;;12.05;;
20984;SDS011;10651;47.552;7.606;2022-12-05T18:50:50;15.30;;;11.45;;
20984;SDS011;10651;47.552;7.606;2022-12-05T18:53:16;17.75;;;12.23;;
20984;SDS011;10651;47.552;7.606;2022-12-05T18:55:42;15.65;;;11.68;;
20984;SDS011;10651;47.552;7.606;2022-12-05T18:58:10;15.52;;;11.52;;
20984;SDS011;10651;47.552;7.606;2022-12-05T19:00:36;17.63;;;12.35;;
20984;SDS011;10651;47.552;7.606;2022-12-05T19:03:02;16.45;;;12.60;;
20984;SDS011;10651;47.552;7.606;2022-12-05T19:05:31;16.38;;;11.50;;
20984;SDS011;10651;47.552;7.606;2022-12-05T19:07:58;16.17;;;11.80;;
20984;SDS011;10651;47.552;7.606;2022-12-05T19:10:24;16.90;;;12.73;;
20984;SDS011;10651;47.552;7.606;2022-12-05T19:12:49;16.33;;;12.63;;
20984;SDS011;10651;47.552;7.606;2022-12-05T19:15:15;17.85;;;12.95;;
20984;SDS011;10651;47.552;7.606;2022-12-05T19:17:41;17.42;;;13.73;;
20984;SDS011;10651;47.552;7.606;2022-12-05T19:20:07;17.45;;;12.50;;
20984;SDS011;10651;47.552;7.606;2022-12-05T19:22:33;21.05;;;14.05;;
20984;SDS011;10651;47.552;7.606;2022-12-05T19:24:58;20.30;;;14.27;;
20984;SDS011;10651;47.552;7.606;2022-12-05T19:27:24;21.55;;;14.93;;
20984;SDS011;10651;47.552;7.606;2022-12-05T19:29:50;22.08;;;15.65;;
20984;SDS011;10651;47.552;7.606;2022-12-05T19:32:16;22.15;;;14.55;;
20984;SDS011;10651;47.552;7.606;2022-12-05T19:34:41;20.45;;;14.07;;
20984;SDS011;10651;47.552;7.606;2022-12-05T19:37:07;22.35;;;13.23;;
20984;SDS011;10651;47.552;7.606;2022-12-05T19:39:33;20.63;;;14.95;;
20984;SDS011;10651;47.552;7.606;2022-12-05T19:41:58;18.42;;;13.40;;
20984;SDS011;10651;47.552;7.606;2022-12-05T19:44:25;17.98;;;11.95;;
20984;SDS011;10651;47.552;7.606;2022-12-05T19:46:51;21.23;;;13.38;;
20984;SDS011;10651;47.552;7.606;2022-12-05T19:49:18;17.65;;;12.95;;
20984;SDS011;10651;47.552;7.606;2022-12-05T19:51:46;17.92;;;12.40;;
20984;SDS011;10651;47.552;7.606;2022-12-05T19:54:12;21.20;;;13.38;;
20984;SDS011;10651;47.552;7.606;2022-12-05T19:56:41;20.23;;;12.98;;
20984;SDS011;10651;47.552;7.606;2022-12-05T19:59:14;22.98;;;14.00;;
20984;SDS011;10651;47.552;7.606;2022-12-05T20:01:40;25.45;;;13.95;;
20984;SDS011;10651;47.552;7.606;2022-12-05T20:04:10;17.65;;;13.07;;
20984;SDS011;10651;47.552;7.606;2022-12-05T20:06:47;19.95;;;14.18;;
20984;SDS011;10651;47.552;7.606;2022-12-05T20:09:14;23.85;;;14.77;;
20984;SDS011;10651;47.552;7.606;2022-12-05T20:11:42;22.83;;;14.25;;
20984;SDS011;10651;47.552;7.606;2022-12-05T20:14:13;21.83;;;13.88;;
20984;SDS011;10651;47.552;7.606;2022-12-05T20:16:39;24.83;;;14.20;;
20984;SDS011;10651;47.552;7.606;2022-12-05T20:19:05;16.45;;;12.57;;
20984;SDS011;10651;47.552;7.606;2022-12-05T20:21:31;20.75;;;14.38;;
20984;SDS011;10651;47.552;7.606;2022-12-05T20:23:59;23.48;;;15.77;;
20984;SDS011;10651;47.552;7.606;2022-12-05T20:26:27;21.48;;;15.20;;
20984;SDS011;10651;47.552;7.606;2022-12-05T20:28:57;26.50;;;18.60;;
20984;SDS011;10651;47.552;7.606;2022-12-05T20:31:26;20.77;;;16.10;;
20984;SDS011;10651;47.552;7.606;2022-12-05T20:33:53;22.42;;;15.75;;
20984;SDS011;10651;47.552;7.606;2022-12-05T20:36:21;22.55;;;15.90;;
20984;SDS011;10651;47.552;7.606;2022-12-05T20:38:52;21.58;;;15.38;;
20984;SDS011;10651;47.552;7.606;2022-12-05T20:41:23;20.88;;;14.68;;
20984;SDS011;10651;47.552;7.606;2022-12-05T20:43:51;24.05;;;13.43;;
20984;SDS011;10651;47.552;7.606;2022-12-05T20:46:18;18.65;;;12.68;;
20984;SDS011;10651;47.552;7.606;2022-12-05T20:48:46;25.05;;;14.73;;
20984;SDS011;10651;47.552;7.606;2022-12-05T20:51:31;22.95;;;16.08;;
20984;SDS011;10651;47.552;7.606;2022-12-05T20:53:59;21.23;;;15.07;;
20984;SDS011;10651;47.552;7.606;2022-12-05T20:56:27;20.45;;;13.55;;
20984;SDS011;10651;47.552;7.606;2022-12-05T20:58:56;21.38;;;14.20;;
20984;SDS011;10651;47.552;7.606;2022-12-05T21:01:25;17.67;;;11.38;;
20984;SDS011;10651;47.552;7.606;2022-12-05T21:03:54;17.10;;;12.02;;
20984;SDS011;10651;47.552;7.606;2022-12-05T21:06:24;17.75;;;11.95;;
20984;SDS011;10651;47.552;7.606;2022-12-05T21:08:57;13.75;;;10.90;;
20984;SDS011;10651;47.552;7.606;2022-12-05T21:11:27;15.73;;;12.13;;
20984;SDS011;10651;47.552;7.606;2022-12-05T21:13:54;18.77;;;13.60;;
20984;SDS011;10651;47.552;7.606;2022-12-05T21:16:21;17.75;;;12.80;;
20984;SDS011;10651;47.552;7.606;2022-12-05T21:18:48;14.60;;;12.05;;
20984;SDS011;10651;47.552;7.606;2022-12-05T21:21:15;14.73;;;11.45;;
20984;SDS011;10651;47.552;7.606;2022-12-05T21:23:43;17.55;;;12.40;;
20984;SDS011;10651;47.552;7.606;2022-12-05T21:26:15;16.17;;;11.80;;
20984;SDS011;10651;47.552;7.606;2022-12-05T21:28:41;14.38;;;12.13;;
20984;SDS011;10651;47.552;7.606;2022-12-05T21:31:12;20.17;;;13.25;;
20984;SDS011;10651;47.552;7.606;2022-12-05T21:33:46;15.60;;;12.38;;
20984;SDS011;10651;47.552;7.606;2022-12-05T21:36:15;16.83;;;11.65;;
20984;SDS011;10651;47.552;7.606;2022-12-05T21:38:41;20.25;;;12.75;;
20984;SDS011;10651;47.552;7.606;2022-12-05T21:41:07;15.23;;;12.73;;
20984;SDS011;10651;47.552;7.606;2022-12-05T21:43:33;17.17;;;12.90;;
20984;SDS011;10651;47.552;7.606;2022-12-05T21:46:00;20.48;;;14.57;;
20984;SDS011;10651;47.552;7.606;2022-12-05T21:48:26;19.83;;;13.60;;
20984;SDS011;10651;47.552;7.606;2022-12-05T21:50:52;17.20;;;12.63;;
20984;SDS011;10651;47.552;7.606;2022-12-05T21:53:19;22.40;;;12.90;;
20984;SDS011;10651;47.552;7.606;2022-12-05T21:55:46;21.42;;;13.40;;
20984;SDS011;10651;47.552;7.606;2022-12-05T21:58:12;18.48;;;13.50;;
20984;SDS011;10651;47.552;7.606;2022-12-05T22:00:38;20.55;;;14.52;;
20984;SDS011;10651;47.552;7.606;2022-12-05T22:03:04;23.40;;;16.23;;
20984;SDS011;10651;47.552;7.606;2022-12-05T22:05:31;25.52;;;16.33;;
20984;SDS011;10651;47.552;7.606;2022-12-05T22:07:59;27.30;;;14.93;;
20984;SDS011;10651;47.552;7.606;2022-12-05T22:10:25;19.75;;;13.65;;
20984;SDS011;10651;47.552;7.606;2022-12-05T22:12:51;17.42;;;12.85;;
20984;SDS011;10651;47.552;7.606;2022-12-05T22:15:16;19.70;;;13.65;;
20984;SDS011;10651;47.552;7.606;2022-12-05T22:17:42;31.67;;;16.17;;
20984;SDS011;10651;47.552;7.606;2022-12-05T22:20:10;26.88;;;17.88;;
20984;SDS011;10651;47.552;7.606;2022-12-05T22:22:36;44.97;;;22.38;;
20984;SDS011;10651;47.552;7.606;2022-12-05T22:25:02;37.58;;;21.17;;
20984;SDS011;10651;47.552;7.606;2022-12-05T22:27:28;27.42;;;17.58;;
20984;SDS011;10651;47.552;7.606;2022-12-05T22:29:54;33.10;;;19.17;;
20984;SDS011;10651;47.552;7.606;2022-12-05T22:32:22;27.90;;;16.08;;
20984;SDS011;10651;47.552;7.606;2022-12-05T22:34:48;25.70;;;15.50;;
20984;SDS011;10651;47.552;7.606;2022-12-05T22:37:14;27.02;;;16.77;;
20984;SDS011;10651;47.552;7.606;2022-12-05T22:39:39;30.48;;;17.17;;
20984;SDS011;10651;47.552;7.606;2022-12-05T22:42:05;30.50;;;17.45;;
20984;SDS011;10651;47.552;7.606;2022-12-05T22:44:31;27.70;;;18.33;;
20984;SDS011;10651;47.552;7.606;2022-12-05T22:46:56;30.90;;;18.42;;
20984;SDS011;10651;47.552;7.606;2022-12-05T22:49:22;31.55;;;19.40;;
20984;SDS011;10651;47.552;7.606;2022-12-05T22:51:47;46.55;;;24.10;;
20984;SDS011;10651;47.552;7.606;2022-12-05T22:54:13;42.28;;;24.25;;
20984;SDS011;10651;47.552;7.606;2022-12-05T22:56:39;48.15;;;25.95;;
20984;SDS011;10651;47.552;7.606;2022-12-05T22:59:05;32.97;;;19.77;;
20984;SDS011;10651;47.552;7.606;2022-12-05T23:01:36;26.58;;;17.15;;
20984;SDS011;10651;47.552;7.606;2022-12-05T23:04:06;27.83;;;17.48;;
20984;SDS011;10651;47.552;7.606;2022-12-05T23:06:34;41.10;;;22.75;;
20984;SDS011;10651;47.552;7.606;2022-12-05T23:09:01;27.95;;;18.63;;
